Time;durP1;ratioP1;P1;durP2;ratioP2;P2;SDS_P1;SDS_P2;PMS_P1;PMS_P2;Temp;Humidity;BMP_temperature;BMP_pressure;BME280_temperature;BME280_humidity;BME280_pressure;Samples;Min_cycle;Max_cycle;Signal;HPM_P1;HPM_P2
2022/06/01 00:01:13;;;;;;;;;5.67;2.33;;;;;16.08;45.62;100931.88;5009361;28;45488;-65
2022/06/01 00:03:41;;;;;;;;;4.00;2.33;;;;;16.03;45.37;100937.59;5011043;28;45381;-65
2022/06/01 00:06:07;;;;;;;;;2.00;2.00;;;;;16.00;45.39;100940.47;5015839;27;45562;-66
2022/06/01 00:08:34;;;;;;;;;1.67;1.67;;;;;15.99;45.71;100937.91;5014350;27;45492;-65
2022/06/01 00:11:00;;;;;;;;;2.00;2.00;;;;;15.97;45.73;100940.72;5015550;27;45576;-66
2022/06/01 00:13:26;;;;;;;;;2.00;2.00;;;;;15.93;45.55;100934.72;5013833;27;45644;-65
2022/06/01 00:15:52;;;;;;;;;2.00;2.00;;;;;15.87;46.06;100937.81;5010759;28;45501;-65
2022/06/01 00:18:18;;;;;;;;;2.00;2.00;;;;;15.83;46.78;100938.16;5003238;28;45534;-66
2022/06/01 00:20:44;;;;;;;;;2.00;2.00;;;;;15.79;46.47;100937.53;5013734;28;45689;-65
2022/06/01 00:23:09;;;;;;;;;3.00;3.00;;;;;15.82;46.37;100939.13;5007321;28;45358;-65
2022/06/01 00:25:35;;;;;;;;;2.00;2.00;;;;;15.82;46.15;100937.31;4996715;27;46603;-66
2022/06/01 00:28:01;;;;;;;;;3.33;2.00;;;;;15.79;46.03;100934.00;5012971;27;45479;-65
2022/06/01 00:30:27;;;;;;;;;2.00;2.00;;;;;15.79;46.48;100945.59;5015083;28;45373;-67
2022/06/01 00:32:53;;;;;;;;;3.00;3.00;;;;;15.75;46.58;100949.44;5024169;27;45355;-65
2022/06/01 00:35:22;;;;;;;;;2.00;2.00;;;;;15.69;46.66;100949.91;5019809;27;45463;-66
2022/06/01 00:37:47;;;;;;;;;2.00;2.00;;;;;15.72;46.67;100952.34;5014694;27;46030;-65
2022/06/01 00:40:15;;;;;;;;;3.00;2.00;;;;;15.66;47.45;100952.81;5002215;27;45372;-66
2022/06/01 00:42:43;;;;;;;;;2.33;2.33;;;;;15.65;46.87;100947.56;5007156;27;45588;-65
2022/06/01 00:45:12;;;;;;;;;3.00;1.67;;;;;15.60;47.12;100950.53;5013408;28;46010;-65
2022/06/01 00:47:38;;;;;;;;;2.00;2.00;;;;;15.58;47.03;100945.25;5014600;28;45462;-66
2022/06/01 00:50:09;;;;;;;;;2.67;2.67;;;;;15.59;47.14;100947.00;5014121;27;45364;-64
2022/06/01 00:52:40;;;;;;;;;4.00;2.33;;;;;15.47;47.57;100936.25;5011762;28;45462;-65
2022/06/01 00:55:19;;;;;;;;;2.00;1.33;;;;;15.48;48.23;100946.03;4998569;28;45506;-64
2022/06/01 00:57:49;;;;;;;;;2.00;2.00;;;;;15.42;47.90;100941.09;4994889;28;45330;-65
2022/06/01 01:00:24;;;;;;;;;3.00;3.00;;;;;15.39;47.79;100939.50;4998919;27;45456;-64
2022/06/01 01:02:52;;;;;;;;;2.67;2.67;;;;;15.39;47.49;100944.00;5000859;28;45387;-65
2022/06/01 01:05:19;;;;;;;;;1.00;1.00;;;;;15.34;47.79;100936.28;5014559;28;45575;-65
2022/06/01 01:07:45;;;;;;;;;3.00;1.67;;;;;15.26;47.95;100928.78;5012770;27;45410;-66
2022/06/01 01:10:14;;;;;;;;;4.67;3.67;;;;;15.32;48.09;100939.06;5014367;27;45269;-65
2022/06/01 01:12:59;;;;;;;;;1.00;1.00;;;;;15.35;48.03;100938.84;5016649;27;45638;-66
2022/06/01 01:15:39;;;;;;;;;3.00;2.00;;;;;15.35;48.10;100941.53;5014322;27;45568;-65
2022/06/01 01:18:09;;;;;;;;;4.00;4.00;;;;;15.29;47.84;100933.06;4994156;27;45412;-65
2022/06/01 01:20:42;;;;;;;;;1.67;1.67;;;;;15.33;48.34;100940.78;4994405;28;45507;-66
2022/06/01 01:23:31;;;;;;;;;2.00;2.00;;;;;15.29;48.19;100939.28;5016237;27;45385;-66
2022/06/01 01:25:57;;;;;;;;;2.67;2.67;;;;;15.28;48.01;100936.72;4985630;28;45497;-66
2022/06/01 01:28:23;;;;;;;;;3.00;3.00;;;;;15.29;48.04;100928.56;5054617;27;45428;-66
2022/06/01 01:30:57;;;;;;;;;2.00;2.00;;;;;15.31;47.82;100934.69;4994592;28;45313;-66
2022/06/01 01:33:26;;;;;;;;;2.67;2.00;;;;;15.30;48.09;100921.38;5001173;27;45400;-65
2022/06/01 01:36:02;;;;;;;;;3.00;3.00;;;;;15.32;47.89;100927.50;5005556;27;46096;-65
2022/06/01 01:38:47;;;;;;;;;5.00;3.33;;;;;15.31;48.41;100934.69;5014029;28;45461;-65
2022/06/01 01:41:28;;;;;;;;;1.67;1.67;;;;;15.28;48.31;100937.56;5013165;27;45482;-64
2022/06/01 01:43:57;;;;;;;;;3.00;3.00;;;;;15.29;48.39;100936.59;4994928;28;45402;-65
2022/06/01 01:46:23;;;;;;;;;3.00;2.00;;;;;15.29;47.94;100938.44;5000886;28;45642;-65
2022/06/01 01:48:49;;;;;;;;;2.67;2.67;;;;;15.28;48.44;100939.41;5016203;27;45531;-64
2022/06/01 01:51:23;;;;;;;;;2.00;2.00;;;;;15.26;48.24;100947.53;5023514;27;45466;-66
2022/06/01 01:53:49;;;;;;;;;1.00;1.00;;;;;15.25;48.79;100937.81;5013634;28;45444;-65
2022/06/01 01:56:20;;;;;;;;;3.00;3.00;;;;;15.18;49.13;100936.50;5011476;28;45510;-65
2022/06/01 01:58:49;;;;;;;;;4.33;3.00;;;;;15.17;49.15;100944.66;4994494;28;45719;-66
2022/06/01 02:01:23;;;;;;;;;7.67;4.33;;;;;15.13;49.22;100938.66;5006167;27;45365;-66
2022/06/01 02:03:57;;;;;;;;;4.00;2.67;;;;;15.14;49.29;100940.38;5015925;27;45286;-66
2022/06/01 02:06:38;;;;;;;;;4.00;3.00;;;;;15.06;49.14;100921.28;5020414;27;45469;-66
2022/06/01 02:09:06;;;;;;;;;3.33;3.00;;;;;15.05;48.60;100923.09;5012820;27;45406;-66
2022/06/01 02:14:45;;;;;;;;;2.67;2.67;;;;;14.97;49.79;100914.75;5000970;28;45434;-66
2022/06/01 02:17:22;;;;;;;;;2.67;2.67;;;;;14.98;50.33;100918.28;4999833;28;45930;-65
2022/06/01 02:20:04;;;;;;;;;3.67;3.67;;;;;14.92;49.62;100921.38;5016901;27;45566;-67
2022/06/01 02:22:30;;;;;;;;;3.00;3.00;;;;;14.90;50.02;100915.28;5014127;27;45375;-68
2022/06/01 02:24:56;;;;;;;;;4.00;3.00;;;;;14.91;50.32;100917.84;5014003;28;45226;-65
2022/06/01 02:27:22;;;;;;;;;5.33;4.00;;;;;14.87;49.93;100910.13;5013270;28;46197;-66
2022/06/01 02:29:57;;;;;;;;;3.67;3.67;;;;;14.81;50.81;100908.72;5012644;28;45386;-66
2022/06/01 02:32:26;;;;;;;;;4.00;4.00;;;;;14.81;50.25;100915.91;4995154;28;45732;-66
2022/06/01 02:34:54;;;;;;;;;4.00;4.00;;;;;14.78;50.34;100906.25;5069696;27;45427;-68
2022/06/01 02:37:22;;;;;;;;;4.00;4.00;;;;;14.80;50.51;100909.69;4993527;27;47039;-66
2022/06/01 02:39:52;;;;;;;;;3.00;3.00;;;;;14.81;50.62;100911.41;4998714;28;45697;-66
2022/06/01 02:42:28;;;;;;;;;4.00;4.00;;;;;14.80;50.39;100900.78;5012912;28;45250;-65
2022/06/01 02:44:55;;;;;;;;;3.33;2.67;;;;;14.80;50.47;100914.19;5013675;28;45198;-66
2022/06/01 02:47:22;;;;;;;;;6.33;5.00;;;;;14.78;50.88;100908.06;5002390;28;46384;-66
2022/06/01 02:49:47;;;;;;;;;5.33;5.00;;;;;14.76;50.71;100910.88;4993872;27;45457;-65
2022/06/01 02:52:13;;;;;;;;;10.33;4.00;;;;;14.75;50.60;100910.00;4996581;28;45531;-65
2022/06/01 02:54:38;;;;;;;;;5.00;4.00;;;;;14.75;50.41;100909.16;5014953;28;45504;-64
2022/06/01 02:57:04;;;;;;;;;4.00;4.00;;;;;14.74;50.71;100904.75;5012764;28;46074;-66
2022/06/01 02:59:29;;;;;;;;;8.00;4.67;;;;;14.76;50.61;100910.88;5005426;27;45574;-66
2022/06/01 03:01:55;;;;;;;;;8.33;6.33;;;;;14.73;50.83;100903.91;4995317;27;45485;-67
2022/06/01 03:04:20;;;;;;;;;4.00;4.00;;;;;14.65;50.57;100900.88;4993670;28;45325;-67
2022/06/01 03:06:46;;;;;;;;;10.00;4.00;;;;;14.56;51.76;100896.16;5002813;27;45581;-64
2022/06/01 03:09:11;;;;;;;;;4.00;4.00;;;;;14.58;51.52;100894.22;5003464;27;45361;-66
2022/06/01 03:11:37;;;;;;;;;5.00;3.67;;;;;14.54;51.98;100898.06;4994579;27;45362;-65
2022/06/01 03:14:02;;;;;;;;;4.00;4.00;;;;;14.49;51.71;100902.91;4993010;28;45618;-66
2022/06/01 03:16:28;;;;;;;;;7.33;5.00;;;;;14.41;51.92;100899.84;4993025;28;46162;-66
2022/06/01 03:18:53;;;;;;;;;5.67;5.00;;;;;14.40;52.48;100906.16;4999052;28;45266;-66
2022/06/01 03:21:19;;;;;;;;;3.00;3.00;;;;;14.38;52.53;100913.41;5028315;28;45326;-66
2022/06/01 03:23:47;;;;;;;;;9.00;5.00;;;;;14.33;52.95;100920.91;5000239;27;45462;-66
2022/06/01 03:26:12;;;;;;;;;4.00;4.00;;;;;14.33;52.10;100923.59;5015017;27;45678;-65
2022/06/01 03:28:42;;;;;;;;;4.67;4.67;;;;;14.36;52.00;100915.34;5010803;28;45337;-69
2022/06/01 03:31:08;;;;;;;;;4.67;4.00;;;;;14.36;51.74;100908.19;5012972;28;45341;-66
2022/06/01 03:33:35;;;;;;;;;6.00;4.67;;;;;14.35;52.23;100918.97;5012987;27;45533;-66
2022/06/01 03:36:02;;;;;;;;;8.33;4.67;;;;;14.36;51.80;100926.03;4992451;28;45361;-67
2022/06/01 03:38:28;;;;;;;;;7.33;6.00;;;;;14.37;52.02;100922.41;4992529;28;45344;-65
2022/06/01 03:40:53;;;;;;;;;4.67;4.67;;;;;14.32;51.77;100904.00;5013427;27;45389;-66
2022/06/01 03:43:19;;;;;;;;;5.67;5.33;;;;;14.29;52.07;100908.66;4991669;27;45393;-66
2022/06/01 03:45:59;;;;;;;;;5.00;5.00;;;;;14.36;51.95;100929.56;4992478;27;46248;-66
2022/06/01 03:48:30;;;;;;;;;6.00;5.00;;;;;14.36;52.23;100924.22;4992350;28;45495;-66
2022/06/01 03:50:59;;;;;;;;;7.00;6.33;;;;;14.36;52.39;100926.03;5005528;28;45392;-66
2022/06/01 03:53:25;;;;;;;;;10.33;7.33;;;;;14.34;52.18;100927.97;5015233;28;45398;-66
2022/06/01 03:55:53;;;;;;;;;6.00;6.00;;;;;14.34;52.63;100926.16;4998154;28;47745;-66
2022/06/01 03:58:23;;;;;;;;;4.67;4.67;;;;;14.32;52.68;100924.50;5003804;27;45516;-67
2022/06/01 04:00:49;;;;;;;;;7.67;5.67;;;;;14.38;52.73;100933.00;4998549;28;45585;-67
2022/06/01 04:03:16;;;;;;;;;5.00;5.00;;;;;14.38;52.28;100937.50;5018799;27;45384;-66
2022/06/01 04:05:41;;;;;;;;;6.00;6.00;;;;;14.39;52.46;100937.41;5014899;28;46296;-66
2022/06/01 04:08:08;;;;;;;;;6.67;5.00;;;;;14.38;52.31;100929.47;5014639;27;45435;-67
2022/06/01 04:10:36;;;;;;;;;7.00;5.00;;;;;14.41;52.24;100943.50;5015348;27;45474;-67
2022/06/01 04:13:02;;;;;;;;;5.00;5.00;;;;;14.43;52.23;100948.75;4997950;28;45543;-67
2022/06/01 04:15:28;;;;;;;;;8.00;7.00;;;;;14.40;52.42;100939.09;5009064;27;45234;-66
2022/06/01 04:17:53;;;;;;;;;4.67;4.67;;;;;14.35;53.28;100935.91;5013377;27;45289;-65
2022/06/01 04:20:19;;;;;;;;;5.33;5.33;;;;;14.29;54.13;100941.63;5017067;27;45894;-65
2022/06/01 04:22:45;;;;;;;;;7.67;7.33;;;;;14.27;53.12;100940.88;5015090;28;45176;-66
2022/06/01 04:25:16;;;;;;;;;6.67;5.67;;;;;14.25;53.16;100944.63;5006313;28;45486;-67
2022/06/01 04:27:41;;;;;;;;;3.67;2.67;;;;;14.32;52.95;100945.91;5010061;28;45443;-66
2022/06/01 04:30:10;;;;;;;;;5.33;5.33;;;;;14.33;52.96;100948.53;4993417;27;45408;-67
2022/06/01 04:32:36;;;;;;;;;8.00;7.00;;;;;14.31;53.64;100962.94;5002052;28;45272;-65
2022/06/01 04:35:04;;;;;;;;;7.33;6.67;;;;;14.24;54.11;100958.97;5033867;27;45403;-65
2022/06/01 04:37:29;;;;;;;;;9.00;7.33;;;;;14.25;54.01;100966.03;4999447;27;45531;-67
2022/06/01 04:39:55;;;;;;;;;9.00;8.00;;;;;14.22;54.35;100971.59;5018379;27;45378;-66
2022/06/01 04:42:21;;;;;;;;;9.00;8.00;;;;;14.17;54.62;100967.38;5015175;27;45373;-66
2022/06/01 04:44:47;;;;;;;;;7.67;5.00;;;;;14.10;55.13;100974.09;5011306;28;47147;-67
2022/06/01 04:47:12;;;;;;;;;10.33;9.33;;;;;14.08;54.57;100975.16;5005833;27;45625;-67
2022/06/01 04:49:38;;;;;;;;;11.67;9.33;;;;;14.10;55.11;100967.88;4995259;28;45448;-66
2022/06/01 04:52:05;;;;;;;;;9.33;8.00;;;;;14.11;54.54;100983.81;4995154;28;45570;-66
2022/06/01 04:54:30;;;;;;;;;5.00;5.00;;;;;14.18;53.92;100978.94;4995310;27;46394;-67
2022/06/01 04:56:56;;;;;;;;;10.00;8.33;;;;;14.20;53.20;100984.19;4994685;28;45306;-66
2022/06/01 04:59:21;;;;;;;;;6.00;5.33;;;;;14.14;53.41;100986.31;5010080;28;45286;-69
2022/06/01 05:01:47;;;;;;;;;7.67;7.00;;;;;14.13;53.40;100968.53;5011834;27;45298;-66
2022/06/01 05:04:13;;;;;;;;;8.00;5.33;;;;;14.23;53.65;100982.19;5015849;28;45522;-65
2022/06/01 05:06:39;;;;;;;;;8.00;7.00;;;;;14.24;54.58;100993.75;4994982;28;45570;-66
2022/06/01 05:09:05;;;;;;;;;10.00;5.00;;;;;14.21;54.42;100986.78;5011239;28;45400;-66
2022/06/01 05:11:30;;;;;;;;;5.00;5.00;;;;;14.12;53.98;100982.00;5019969;27;45537;-67
2022/06/01 05:13:56;;;;;;;;;5.00;5.00;;;;;14.13;54.62;100989.94;5011595;28;45444;-67
2022/06/01 05:16:21;;;;;;;;;5.67;5.67;;;;;14.14;55.00;100997.00;5011687;28;45488;-65
2022/06/01 05:18:47;;;;;;;;;7.00;7.00;;;;;14.16;54.17;100997.75;5012896;27;45447;-66
2022/06/01 05:21:13;;;;;;;;;7.00;6.33;;;;;14.27;53.98;101001.56;4999870;27;45932;-66
2022/06/01 05:23:38;;;;;;;;;8.00;5.67;;;;;14.30;53.68;101004.88;4994361;28;46036;-66
2022/06/01 05:26:04;;;;;;;;;6.67;5.67;;;;;14.28;54.06;101008.63;5001540;27;45528;-67
2022/06/01 05:28:32;;;;;;;;;6.33;6.33;;;;;14.33;53.91;100999.34;5054349;27;45404;-66
2022/06/01 05:31:05;;;;;;;;;5.00;5.00;;;;;14.34;53.57;100992.19;5042995;27;45667;-63
2022/06/01 05:33:31;;;;;;;;;7.00;6.00;;;;;14.38;53.32;100999.91;5009285;28;46169;-64
2022/06/01 05:36:00;;;;;;;;;10.00;7.33;;;;;14.41;53.53;100999.69;5001192;27;45261;-66
2022/06/01 05:38:25;;;;;;;;;9.00;7.00;;;;;14.38;53.73;100989.19;5002579;27;45440;-64
2022/06/01 05:40:51;;;;;;;;;6.67;6.67;;;;;14.47;53.90;100990.47;5009458;28;45566;-63
2022/06/01 05:43:17;;;;;;;;;8.00;6.00;;;;;14.48;53.77;100988.63;5006935;28;46490;-63
2022/06/01 05:45:44;;;;;;;;;12.00;10.00;;;;;14.48;54.75;100989.50;5006953;27;45549;-65
2022/06/01 05:48:13;;;;;;;;;6.00;6.00;;;;;14.42;54.90;100980.00;5011463;28;45310;-65
2022/06/01 05:50:39;;;;;;;;;9.33;9.33;;;;;14.43;54.99;100987.06;4998813;28;45491;-65
2022/06/01 05:53:05;;;;;;;;;7.33;7.33;;;;;14.49;54.34;100975.16;5009560;27;47478;-63
2022/06/01 05:55:31;;;;;;;;;9.00;9.00;;;;;14.57;54.93;100983.50;5009026;28;45593;-62
2022/06/01 05:57:57;;;;;;;;;5.67;5.67;;;;;14.62;54.47;100988.56;4994143;28;45427;-67
2022/06/01 06:00:23;;;;;;;;;10.33;7.33;;;;;14.62;54.30;100986.75;5006135;28;45598;-66
2022/06/01 06:02:48;;;;;;;;;7.67;4.33;;;;;14.70;54.13;100997.78;5063231;27;45384;-66
2022/06/01 06:07:59;;;;;;;;;7.00;5.67;;;;;14.82;54.46;100993.44;5014098;28;45380;-66
2022/06/01 06:10:27;;;;;;;;;5.33;5.00;;;;;14.84;53.20;100985.28;5033749;27;45216;-72
2022/06/01 06:12:53;;;;;;;;;4.00;4.00;;;;;14.92;52.44;100997.22;5055881;27;45245;-65
2022/06/01 06:15:20;;;;;;;;;4.67;4.67;;;;;14.98;52.83;101001.31;4998509;28;45459;-70
2022/06/01 06:17:46;;;;;;;;;4.33;3.33;;;;;15.04;52.15;100998.22;5033104;28;45474;-69
2022/06/01 06:20:14;;;;;;;;;5.00;5.00;;;;;15.01;51.55;100993.06;5033079;28;45307;-51
2022/06/01 06:22:40;;;;;;;;;5.00;5.00;;;;;15.05;51.17;100992.75;5084034;27;45236;-65
2022/06/01 06:25:06;;;;;;;;;2.00;2.00;;;;;15.11;50.28;100983.44;5117587;27;45380;-63
2022/06/01 06:27:32;;;;;;;;;4.00;4.00;;;;;15.22;49.65;100994.25;5002976;27;45486;-66
2022/06/01 06:29:57;;;;;;;;;3.33;3.33;;;;;15.28;49.91;100995.66;4992079;27;45690;-65
2022/06/01 06:32:25;;;;;;;;;2.67;2.67;;;;;15.10;49.11;100964.78;4993768;27;45544;-64
2022/06/01 06:34:51;;;;;;;;;2.00;2.00;;;;;15.24;49.56;100987.00;4993787;28;45383;-65
2022/06/01 06:37:16;;;;;;;;;3.00;3.00;;;;;15.22;49.32;100996.94;5070915;27;45873;-65
2022/06/01 06:39:42;;;;;;;;;2.33;2.33;;;;;15.22;49.05;101002.28;5115986;27;45454;-64
2022/06/01 06:42:08;;;;;;;;;1.00;1.00;;;;;15.11;49.13;100996.84;4995476;27;45389;-65
2022/06/01 06:44:36;;;;;;;;;2.00;2.00;;;;;15.12;50.04;101001.22;4993331;28;45475;-66
2022/06/01 06:47:02;;;;;;;;;3.33;3.33;;;;;15.23;49.71;101013.88;4993604;28;45272;-63
2022/06/01 06:49:28;;;;;;;;;3.00;1.67;;;;;15.18;50.58;101016.00;4992168;28;45593;-66
2022/06/01 06:51:54;;;;;;;;;4.00;4.00;;;;;15.17;50.21;101017.84;4993031;28;46294;-66
2022/06/01 06:54:19;;;;;;;;;3.00;3.00;;;;;15.19;50.25;101005.19;4991092;27;45890;-65
2022/06/01 06:56:44;;;;;;;;;4.00;4.00;;;;;15.31;49.98;101000.81;4991712;28;45387;-64
2022/06/01 06:59:15;;;;;;;;;7.33;5.67;;;;;15.43;49.37;101015.19;4993665;27;45377;-65
2022/06/01 07:01:42;;;;;;;;;4.00;2.67;;;;;15.48;49.34;101005.00;4993200;28;45226;-63
2022/06/01 07:04:08;;;;;;;;;3.00;3.00;;;;;15.52;49.22;101014.56;4992055;28;45549;-64
2022/06/01 07:06:33;;;;;;;;;8.00;8.00;;;;;15.53;49.17;101013.59;4993114;28;45342;-63
2022/06/01 07:09:00;;;;;;;;;8.67;5.00;;;;;15.62;48.98;101018.31;4991865;28;45505;-65
2022/06/01 07:11:28;;;;;;;;;2.67;2.67;;;;;15.71;48.93;101020.34;4992927;27;46150;-63
2022/06/01 07:13:55;;;;;;;;;3.00;3.00;;;;;15.66;48.04;101006.44;4992516;27;45333;-64
2022/06/01 07:16:27;;;;;;;;;4.00;4.00;;;;;15.73;48.69;101023.78;4992797;28;45429;-64
2022/06/01 07:18:54;;;;;;;;;4.33;3.00;;;;;15.76;48.33;101020.91;5025115;27;45522;-64
2022/06/01 07:21:21;;;;;;;;;5.00;2.67;;;;;15.77;48.36;101019.94;5011587;28;48371;-64
2022/06/01 07:23:48;;;;;;;;;5.00;5.00;;;;;15.80;48.67;101018.84;5004171;27;46023;-62
2022/06/01 07:26:23;;;;;;;;;4.00;4.00;;;;;15.74;48.74;101009.41;5012783;28;45395;-64
2022/06/01 07:28:49;;;;;;;;;3.67;3.00;;;;;15.83;48.66;101015.94;5009861;27;45487;-63
2022/06/01 07:31:15;;;;;;;;;11.33;11.00;;;;;15.88;48.60;101006.59;5009210;28;47290;-66
2022/06/01 07:33:41;;;;;;;;;4.00;3.67;;;;;15.93;48.53;101014.34;5004391;27;45403;-65
2022/06/01 07:36:09;;;;;;;;;4.33;4.33;;;;;15.95;48.55;101012.38;5010685;28;45612;-66
2022/06/01 07:44:19;;;;;;;;;6.00;4.67;;;;;16.00;47.99;101018.28;5027046;27;45453;-63
2022/06/01 07:46:45;;;;;;;;;2.00;2.00;;;;;16.01;47.96;101022.66;5061789;27;45795;-64
2022/06/01 07:49:11;;;;;;;;;3.33;3.33;;;;;16.09;48.77;101019.44;5101296;27;45316;-60
2022/06/01 07:51:37;;;;;;;;;3.00;3.00;;;;;16.12;48.06;101029.94;5092209;27;46593;-59
2022/06/01 07:54:04;;;;;;;;;4.00;4.00;;;;;16.16;48.34;101026.09;5034896;28;45722;-61
2022/06/01 07:56:30;;;;;;;;;8.00;4.33;;;;;16.18;48.09;101019.66;4999039;28;45242;-62
2022/06/01 07:58:55;;;;;;;;;6.67;5.67;;;;;16.23;48.79;101025.53;5034491;27;45300;-60
2022/06/01 08:01:25;;;;;;;;;4.00;2.00;;;;;16.30;48.00;101020.56;5035280;28;45180;-60
2022/06/01 08:03:51;;;;;;;;;4.00;2.67;;;;;16.39;47.80;101027.06;5048112;27;45451;-62
2022/06/01 08:06:17;;;;;;;;;4.67;4.00;;;;;16.44;47.91;101020.41;5027272;28;45519;-61
2022/06/01 08:08:43;;;;;;;;;5.67;4.33;;;;;16.50;48.01;101019.94;5064038;28;45492;-62
2022/06/01 08:11:08;;;;;;;;;5.33;4.00;;;;;16.50;47.95;101011.03;5033272;28;45590;-60
2022/06/01 08:13:34;;;;;;;;;5.67;5.00;;;;;16.55;48.10;101016.09;5018127;27;46068;-60
2022/06/01 08:16:01;;;;;;;;;4.00;4.00;;;;;16.60;47.93;101017.44;5084144;27;45356;-62
2022/06/01 08:18:26;;;;;;;;;6.00;4.33;;;;;16.71;48.27;101012.16;5118056;27;45215;-60
2022/06/01 08:20:53;;;;;;;;;8.33;5.00;;;;;16.97;47.01;101006.66;5119379;27;46353;-60
2022/06/01 08:23:22;;;;;;;;;4.67;4.00;;;;;17.46;46.22;101009.13;5119765;27;45457;-62
2022/06/01 08:25:49;;;;;;;;;3.33;3.33;;;;;18.00;45.33;101015.66;5034356;27;45460;-62
2022/06/01 08:28:15;;;;;;;;;5.00;4.00;;;;;18.69;44.50;101008.19;5015318;28;45243;-61
2022/06/01 08:30:42;;;;;;;;;8.00;5.00;;;;;19.28;42.86;101008.53;5033062;27;45378;-60
2022/06/01 08:33:08;;;;;;;;;6.00;5.00;;;;;19.79;41.37;101002.28;5093664;27;45289;-60
2022/06/01 08:35:40;;;;;;;;;3.00;3.00;;;;;20.18;41.61;100999.72;5116040;27;45541;-57
2022/06/01 08:38:06;;;;;;;;;3.67;3.67;;;;;20.39;39.28;101010.44;5014086;28;45655;-63
2022/06/01 08:40:46;;;;;;;;;5.00;3.00;;;;;20.73;39.63;101002.84;5036018;27;45268;-63
2022/06/01 08:43:16;;;;;;;;;5.00;3.67;;;;;20.87;37.17;100973.53;5119169;27;45453;-68
2022/06/01 08:45:48;;;;;;;;;3.33;3.33;;;;;21.28;37.81;100992.31;5075751;27;45469;-66
2022/06/01 08:48:19;;;;;;;;;4.75;3.75;;;;;21.68;37.26;100995.63;5018401;27;45529;-71
2022/06/01 08:50:44;;;;;;;;;2.00;2.00;;;;;22.08;37.92;101005.31;4994971;28;46103;-70
2022/06/01 08:53:10;;;;;;;;;2.75;2.75;;;;;22.45;37.02;101004.38;4994551;28;45463;-68
2022/06/01 08:56:10;;;;;;;;;3.75;2.00;;;;;22.69;35.85;100988.38;4995521;28;45310;-71
2022/06/01 08:59:00;;;;;;;;;3.50;3.00;;;;;23.07;35.00;100989.09;4983114;28;45506;-72
2022/06/01 09:01:31;;;;;;;;;2.75;2.75;;;;;23.34;34.93;100997.09;4994435;28;45474;-70
2022/06/01 09:04:15;;;;;;;;;4.50;4.50;;;;;23.69;34.32;100996.16;4994600;27;45253;-70
2022/06/01 09:06:48;;;;;;;;;3.00;3.00;;;;;23.83;32.70;100989.28;4994815;28;45274;-68
2022/06/01 09:09:30;;;;;;;;;5.00;5.00;;;;;23.63;35.39;100991.38;4995310;27;45402;-73
2022/06/01 09:11:56;;;;;;;;;3.00;3.00;;;;;23.91;35.38;100989.31;4993111;27;45372;-69
2022/06/01 09:14:45;;;;;;;;;4.00;3.25;;;;;24.20;34.07;100997.06;4994542;28;45382;-69
2022/06/01 09:17:10;;;;;;;;;3.00;3.00;;;;;24.43;33.91;101005.50;5018606;27;45440;-68
2022/06/01 09:22:42;;;;;;;;;3.50;1.50;;;;;24.48;33.31;100997.72;4994460;28;45494;-67
2022/06/01 09:25:20;;;;;;;;;2.60;2.60;;;;;24.49;35.19;101004.84;4994910;28;45227;-70
2022/06/01 09:27:51;;;;;;;;;3.00;3.00;;;;;24.41;33.82;100999.38;4995187;28;45813;-71
2022/06/01 09:30:24;;;;;;;;;2.00;1.25;;;;;24.27;31.74;101000.00;4993379;28;45328;-66
2022/06/01 09:33:10;;;;;;;;;3.00;3.00;;;;;24.31;32.41;100994.06;4993303;28;47295;-69
2022/06/01 09:35:43;;;;;;;;;4.60;3.40;;;;;24.05;32.40;101001.44;5009396;28;45368;-72
2022/06/01 09:38:51;;;;;;;;;3.20;3.20;;;;;23.92;33.02;101001.88;5016483;27;45413;-68
2022/06/01 09:41:19;;;;;;;;;2.00;2.00;;;;;23.80;33.20;100997.75;4995111;27;45262;-69
2022/06/01 09:44:00;;;;;;;;;2.50;2.50;;;;;24.08;34.22;101009.25;4993112;28;47080;-71
2022/06/01 09:46:35;;;;;;;;;2.60;2.20;;;;;24.34;33.53;100992.88;4994011;28;45432;-70
2022/06/01 09:49:08;;;;;;;;;3.25;3.00;;;;;24.51;33.79;101005.53;4994666;28;45259;-67
2022/06/01 09:51:38;;;;;;;;;2.75;2.75;;;;;24.61;33.93;100992.66;4993079;28;45477;-69
2022/06/01 09:54:19;;;;;;;;;1.00;1.00;;;;;24.61;32.96;100992.66;5012439;27;46199;-66
2022/06/01 09:56:50;;;;;;;;;2.00;2.00;;;;;24.85;32.31;100990.94;5014112;28;45331;-68
2022/06/01 10:08:21;;;;;;;;;1.20;0.00;;;;;24.83;31.55;100995.72;5013989;28;45788;-67
2022/06/01 10:11:02;;;;;;;;;2.00;2.00;;;;;24.89;31.98;100989.63;4998328;27;45390;-67
2022/06/01 10:13:41;;;;;;;;;1.00;1.00;;;;;24.74;31.02;100981.28;4994554;28;45338;-70
2022/06/01 10:16:21;;;;;;;;;2.75;2.75;;;;;24.67;31.28;100986.53;5078457;27;47684;-68
2022/06/01 10:18:48;;;;;;;;;1.80;1.80;;;;;24.52;31.08;100974.59;5011454;28;45180;-69
2022/06/01 10:21:20;;;;;;;;;0.00;0.00;;;;;24.73;31.16;100986.84;5013649;28;45384;-68
2022/06/01 10:23:55;;;;;;;;;2.25;2.00;;;;;24.79;30.69;100978.03;5028740;27;45285;-68
2022/06/01 10:26:31;;;;;;;;;1.75;1.75;;;;;24.61;30.92;100987.22;5012478;27;45399;-67
2022/06/01 10:29:05;;;;;;;;;3.25;2.00;;;;;24.40;31.02;100984.09;5013490;28;45345;-72
2022/06/01 10:31:52;;;;;;;;;1.20;1.20;;;;;24.31;31.23;100991.38;5013473;28;45227;-71
2022/06/01 10:34:32;;;;;;;;;1.25;1.25;;;;;23.90;31.99;100974.03;5002641;27;48366;-72
2022/06/01 10:37:07;;;;;;;;;1.00;1.00;;;;;23.62;32.56;100977.97;5056386;27;45441;-71
2022/06/01 10:39:40;;;;;;;;;1.25;1.25;;;;;23.38;32.58;100976.75;5117123;27;45354;-71
2022/06/01 10:45:43;;;;;;;;;3.75;2.00;;;;;22.79;33.89;100985.59;5074071;28;45367;-71
2022/06/01 10:48:15;;;;;;;;;2.75;1.50;;;;;22.43;34.53;100990.16;5116967;27;45453;-71
2022/06/01 10:51:08;;;;;;;;;2.00;2.00;;;;;22.25;34.54;100988.25;5115937;27;45826;-68
2022/06/01 10:53:48;;;;;;;;;3.00;3.00;;;;;22.23;34.84;100981.28;5008602;28;45332;-70
2022/06/01 10:56:17;;;;;;;;;2.00;2.00;;;;;22.24;34.64;100980.25;4993550;28;45305;-69
2022/06/01 10:58:43;;;;;;;;;2.50;2.50;;;;;21.70;35.06;100988.19;4993458;28;46142;-70
2022/06/01 11:01:31;;;;;;;;;2.75;2.75;;;;;21.54;35.69;100976.28;4993346;28;45244;-68
2022/06/01 11:04:21;;;;;;;;;4.50;3.00;;;;;21.57;35.20;100976.00;4994974;27;45383;-68
2022/06/01 11:07:22;;;;;;;;;2.33;2.33;;;;;21.24;36.09;100980.06;4996378;28;45439;-67
2022/06/01 11:10:07;;;;;;;;;3.00;3.00;;;;;20.97;36.06;100970.00;4996025;27;47777;-60
2022/06/01 11:13:06;;;;;;;;;1.00;1.00;;;;;21.04;35.97;100969.25;5009239;27;45527;-60
2022/06/01 11:15:39;;;;;;;;;3.67;3.67;;;;;21.20;35.76;100964.09;4995747;28;45391;-59
2022/06/01 11:18:29;;;;;;;;;4.33;2.00;;;;;21.24;35.42;100961.97;5003833;28;45231;-62
2022/06/01 11:21:16;;;;;;;;;3.67;2.00;;;;;21.40;35.57;100964.94;4996025;28;45494;-59
2022/06/01 11:24:08;;;;;;;;;2.00;2.00;;;;;21.40;35.94;100955.97;5010756;28;45545;-61
2022/06/01 11:26:48;;;;;;;;;1.67;1.67;;;;;21.20;35.38;100957.81;4999914;27;45479;-62
2022/06/01 11:29:39;;;;;;;;;2.00;2.00;;;;;21.14;36.08;100955.72;4997412;28;45517;-60
2022/06/01 11:32:14;;;;;;;;;2.00;2.00;;;;;21.26;35.74;100961.84;4995043;28;46163;-60
2022/06/01 11:34:48;;;;;;;;;1.67;1.67;;;;;21.49;34.58;100949.69;4993931;28;45436;-62
2022/06/01 11:37:35;;;;;;;;;1.67;1.67;;;;;21.59;34.27;100953.19;5071040;27;45442;-62
2022/06/01 11:40:14;;;;;;;;;2.00;2.00;;;;;21.47;34.85;100960.63;5025136;27;45448;-60
2022/06/01 11:42:55;;;;;;;;;2.50;2.50;;;;;21.67;34.90;100950.59;4994861;28;46234;-59
2022/06/01 11:45:32;;;;;;;;;3.50;3.50;;;;;21.82;34.02;100944.69;4995333;27;45353;-57
2022/06/01 11:48:08;;;;;;;;;5.67;5.67;;;;;21.93;33.66;100941.78;5014415;27;45503;-61
2022/06/01 11:51:01;;;;;;;;;3.00;3.00;;;;;21.95;33.69;100942.47;4996279;28;45542;-60
2022/06/01 11:53:44;;;;;;;;;2.67;1.67;;;;;21.77;33.30;100948.72;4995075;27;46409;-60
2022/06/01 11:56:30;;;;;;;;;2.00;2.00;;;;;21.74;33.79;100951.69;5010495;27;45386;-59
2022/06/01 11:59:28;;;;;;;;;3.00;2.00;;;;;21.95;34.52;100937.91;4997481;27;45545;-58
2022/06/01 12:02:40;;;;;;;;;3.00;2.00;;;;;22.12;32.58;100938.97;4982492;27;45409;-60
2022/06/01 12:05:23;;;;;;;;;3.33;3.00;;;;;22.34;32.73;100927.72;5013631;28;46431;-60
2022/06/01 12:08:01;;;;;;;;;5.67;4.00;;;;;22.48;32.74;100933.59;5021075;28;45234;-61